sensor_id;sensor_type;location;lat;lon;timestamp;pressure;altitude;pressure_sealevel;temperature;humidity
12536;BME280;6334;48.696;2.114;2024-03-25T00:00:37;99405.83;;;6.49;73.29
12536;BME280;6334;48.696;2.114;2024-03-25T00:03:28;99271.48;;;5.82;72.55
12536;BME280;6334;48.696;2.114;2024-03-25T00:06:15;99376.68;;;6.61;72.46
12536;BME280;6334;48.696;2.114;2024-03-25T00:10:00;99402.42;;;6.79;73.34
12536;BME280;6334;48.696;2.114;2024-03-25T00:12:36;99397.76;;;6.74;72.21
12536;BME280;6334;48.696;2.114;2024-03-25T00:22:22;99394.84;;;6.50;73.35
12536;BME280;6334;48.696;2.114;2024-03-25T00:26:39;99390.65;;;6.47;74.00
12536;BME280;6334;48.696;2.114;2024-03-25T00:29:17;99388.56;;;6.64;72.92
12536;BME280;6334;48.696;2.114;2024-03-25T00:33:03;99209.31;;;5.68;72.95
12536;BME280;6334;48.696;2.114;2024-03-25T00:40:17;99371.86;;;6.87;72.46
12536;BME280;6334;48.696;2.114;2024-03-25T00:42:57;99374.19;;;6.50;73.06
12536;BME280;6334;48.696;2.114;2024-03-25T00:45:28;99364.44;;;6.63;72.37
12536;BME280;6334;48.696;2.114;2024-03-25T00:47:58;99357.84;;;6.45;73.25
12536;BME280;6334;48.696;2.114;2024-03-25T00:50:39;99359.25;;;7.02;71.52
12536;BME280;6334;48.696;2.114;2024-03-25T00:53:10;99350.69;;;6.98;71.53
12536;BME280;6334;48.696;2.114;2024-03-25T00:55:40;99344.91;;;6.97;71.89
12536;BME280;6334;48.696;2.114;2024-03-25T01:00:44;99341.67;;;6.99;71.28
12536;BME280;6334;48.696;2.114;2024-03-25T01:03:17;99335.02;;;6.92;71.63
12536;BME280;6334;48.696;2.114;2024-03-25T01:05:47;99330.56;;;6.81;71.94
12536;BME280;6334;48.696;2.114;2024-03-25T01:08:21;99329.02;;;6.99;71.10
12536;BME280;6334;48.696;2.114;2024-03-25T01:10:59;99317.20;;;6.88;71.11
12536;BME280;6334;48.696;2.114;2024-03-25T01:13:32;99315.37;;;6.81;71.03
12536;BME280;6334;48.696;2.114;2024-03-25T01:16:02;99311.71;;;6.71;71.82
12536;BME280;6334;48.696;2.114;2024-03-25T01:18:40;99192.34;;;5.78;71.20
12536;BME280;6334;48.696;2.114;2024-03-25T01:21:10;99311.25;;;6.59;72.04
12536;BME280;6334;48.696;2.114;2024-03-25T01:23:41;99305.12;;;6.58;71.47
12536;BME280;6334;48.696;2.114;2024-03-25T01:33:09;99282.06;;;6.99;71.42
12536;BME280;6334;48.696;2.114;2024-03-25T01:42:13;99273.21;;;6.79;71.22
12536;BME280;6334;48.696;2.114;2024-03-25T01:44:58;99273.93;;;6.74;72.04
12536;BME280;6334;48.696;2.114;2024-03-25T01:47:28;99271.66;;;6.68;71.36
12536;BME280;6334;48.696;2.114;2024-03-25T01:50:05;99259.48;;;6.60;71.98
12536;BME280;6334;48.696;2.114;2024-03-25T01:52:46;99181.30;;;6.26;71.60
12536;BME280;6334;48.696;2.114;2024-03-25T01:55:24;99249.86;;;6.76;71.53
12536;BME280;6334;48.696;2.114;2024-03-25T02:07:12;99215.25;;;6.73;71.46
12536;BME280;6334;48.696;2.114;2024-03-25T02:09:42;99221.25;;;6.67;71.53
12536;BME280;6334;48.696;2.114;2024-03-25T02:12:14;99220.03;;;6.74;71.43
12536;BME280;6334;48.696;2.114;2024-03-25T02:14:57;99211.42;;;6.66;71.70
12536;BME280;6334;48.696;2.114;2024-03-25T02:17:49;99205.53;;;6.51;72.25
12536;BME280;6334;48.696;2.114;2024-03-25T02:20:16;99201.20;;;6.54;72.23
12536;BME280;6334;48.696;2.114;2024-03-25T02:22:46;99206.52;;;6.52;72.26
12536;BME280;6334;48.696;2.114;2024-03-25T02:25:17;99203.41;;;6.47;72.40
12536;BME280;6334;48.696;2.114;2024-03-25T02:27:47;99195.53;;;6.61;72.22
12536;BME280;6334;48.696;2.114;2024-03-25T02:30:17;99200.69;;;6.56;72.20
12536;BME280;6334;48.696;2.114;2024-03-25T02:39:40;99192.63;;;6.61;72.21
12536;BME280;6334;48.696;2.114;2024-03-25T02:42:10;99190.17;;;6.58;71.94
12536;BME280;6334;48.696;2.114;2024-03-25T02:44:40;99188.25;;;6.60;72.30
12536;BME280;6334;48.696;2.114;2024-03-25T02:47:10;99192.98;;;6.01;72.88
12536;BME280;6334;48.696;2.114;2024-03-25T02:49:40;99187.19;;;6.21;73.22
12536;BME280;6334;48.696;2.114;2024-03-25T02:52:10;99185.58;;;6.37;72.66
12536;BME280;6334;48.696;2.114;2024-03-25T02:54:40;99182.95;;;6.61;72.22
12536;BME280;6334;48.696;2.114;2024-03-25T02:57:10;99185.05;;;6.78;71.94
12536;BME280;6334;48.696;2.114;2024-03-25T02:59:49;99172.16;;;6.67;71.59
12536;BME280;6334;48.696;2.114;2024-03-25T03:02:19;99166.95;;;6.68;71.83
12536;BME280;6334;48.696;2.114;2024-03-25T03:04:49;99167.64;;;6.64;71.99
12536;BME280;6334;48.696;2.114;2024-03-25T03:07:18;99157.78;;;6.67;71.76
12536;BME280;6334;48.696;2.114;2024-03-25T03:09:49;99157.33;;;6.53;72.43
12536;BME280;6334;48.696;2.114;2024-03-25T03:12:20;99149.22;;;6.56;72.16
12536;BME280;6334;48.696;2.114;2024-03-25T03:14:50;99139.63;;;6.73;71.93
12536;BME280;6334;48.696;2.114;2024-03-25T03:17:22;99130.25;;;6.51;72.48
12536;BME280;6334;48.696;2.114;2024-03-25T03:19:55;99126.59;;;6.78;72.50
12536;BME280;6334;48.696;2.114;2024-03-25T03:22:27;99123.50;;;6.72;71.59
12536;BME280;6334;48.696;2.114;2024-03-25T03:28:45;99106.80;;;6.65;71.46
12536;BME280;6334;48.696;2.114;2024-03-25T03:32:00;99124.34;;;6.38;72.77
12536;BME280;6334;48.696;2.114;2024-03-25T03:34:32;99115.33;;;6.50;72.73
12536;BME280;6334;48.696;2.114;2024-03-25T03:37:02;99107.77;;;6.76;71.76
12536;BME280;6334;48.696;2.114;2024-03-25T03:39:31;99099.52;;;6.66;71.67
12536;BME280;6334;48.696;2.114;2024-03-25T03:42:01;99096.72;;;6.64;72.13
12536;BME280;6334;48.696;2.114;2024-03-25T03:44:39;99093.59;;;6.55;72.37
12536;BME280;6334;48.696;2.114;2024-03-25T03:47:09;99092.98;;;6.44;73.34
12536;BME280;6334;48.696;2.114;2024-03-25T03:49:39;99090.41;;;6.60;72.05
12536;BME280;6334;48.696;2.114;2024-03-25T03:52:08;99095.46;;;6.43;72.85
12536;BME280;6334;48.696;2.114;2024-03-25T03:54:38;99082.80;;;6.55;73.00
12536;BME280;6334;48.696;2.114;2024-03-25T03:57:11;99080.22;;;6.55;72.64
12536;BME280;6334;48.696;2.114;2024-03-25T03:59:45;99084.08;;;6.58;72.67
12536;BME280;6334;48.696;2.114;2024-03-25T04:02:24;99078.87;;;6.50;72.82
12536;BME280;6334;48.696;2.114;2024-03-25T04:04:53;99073.05;;;6.45;72.98
12536;BME280;6334;48.696;2.114;2024-03-25T04:07:23;99069.11;;;6.50;72.80
12536;BME280;6334;48.696;2.114;2024-03-25T04:09:54;99068.20;;;6.58;72.76
12536;BME280;6334;48.696;2.114;2024-03-25T04:12:25;99068.89;;;6.50;72.47
12536;BME280;6334;48.696;2.114;2024-03-25T04:14:55;99053.16;;;6.37;72.16
12536;BME280;6334;48.696;2.114;2024-03-25T04:17:25;99048.09;;;6.40;73.00
12536;BME280;6334;48.696;2.114;2024-03-25T04:22:34;99038.81;;;6.34;73.04
12536;BME280;6334;48.696;2.114;2024-03-25T04:25:04;99038.11;;;6.31;72.85
12536;BME280;6334;48.696;2.114;2024-03-25T04:27:33;99036.56;;;6.27;73.57
12536;BME280;6334;48.696;2.114;2024-03-25T04:30:04;99039.23;;;6.10;73.43
12536;BME280;6334;48.696;2.114;2024-03-25T04:32:33;99033.93;;;6.34;73.66
12536;BME280;6334;48.696;2.114;2024-03-25T04:35:03;99030.33;;;6.38;72.99
12536;BME280;6334;48.696;2.114;2024-03-25T04:37:44;99020.88;;;6.57;73.19
12536;BME280;6334;48.696;2.114;2024-03-25T04:40:14;99021.35;;;6.58;72.59
12536;BME280;6334;48.696;2.114;2024-03-25T04:42:44;99023.80;;;6.25;73.46
12536;BME280;6334;48.696;2.114;2024-03-25T04:45:18;99025.13;;;6.45;73.53
12536;BME280;6334;48.696;2.114;2024-03-25T04:47:49;99024.42;;;6.35;73.19
12536;BME280;6334;48.696;2.114;2024-03-25T04:50:18;99019.25;;;6.40;73.40
12536;BME280;6334;48.696;2.114;2024-03-25T04:52:50;99013.01;;;6.52;73.31
12536;BME280;6334;48.696;2.114;2024-03-25T04:55:20;99011.13;;;6.56;72.73
12536;BME280;6334;48.696;2.114;2024-03-25T04:57:49;99007.41;;;6.68;72.44
12536;BME280;6334;48.696;2.114;2024-03-25T05:00:19;99000.86;;;6.43;73.04
12536;BME280;6334;48.696;2.114;2024-03-25T05:02:51;98999.77;;;6.46;73.66
12536;BME280;6334;48.696;2.114;2024-03-25T05:05:22;98999.39;;;6.44;73.44
12536;BME280;6334;48.696;2.114;2024-03-25T05:07:52;98992.64;;;6.33;73.57
12536;BME280;6334;48.696;2.114;2024-03-25T05:10:23;99001.80;;;6.56;73.07
12536;BME280;6334;48.696;2.114;2024-03-25T05:12:53;99001.77;;;6.38;73.23
12536;BME280;6334;48.696;2.114;2024-03-25T05:15:23;99000.81;;;6.61;72.40
12536;BME280;6334;48.696;2.114;2024-03-25T05:17:53;98999.62;;;6.65;72.49
12536;BME280;6334;48.696;2.114;2024-03-25T05:20:23;98997.85;;;6.54;72.99
12536;BME280;6334;48.696;2.114;2024-03-25T05:22:53;99004.03;;;6.35;73.24
12536;BME280;6334;48.696;2.114;2024-03-25T05:25:22;99000.38;;;6.06;73.77
12536;BME280;6334;48.696;2.114;2024-03-25T05:27:55;98998.56;;;6.44;73.32
12536;BME280;6334;48.696;2.114;2024-03-25T05:30:24;98995.12;;;6.41;72.75
12536;BME280;6334;48.696;2.114;2024-03-25T05:32:54;98995.41;;;6.43;72.74
12536;BME280;6334;48.696;2.114;2024-03-25T05:35:25;98997.42;;;6.48;73.21
12536;BME280;6334;48.696;2.114;2024-03-25T05:37:57;98994.45;;;6.41;72.29
12536;BME280;6334;48.696;2.114;2024-03-25T05:40:26;98972.35;;;6.16;72.60
12536;BME280;6334;48.696;2.114;2024-03-25T05:42:57;98994.98;;;6.08;73.44
12536;BME280;6334;48.696;2.114;2024-03-25T05:45:28;98985.03;;;6.14;73.37
12536;BME280;6334;48.696;2.114;2024-03-25T05:47:58;98985.11;;;6.35;72.89
12536;BME280;6334;48.696;2.114;2024-03-25T05:50:28;98982.81;;;6.46;72.52
12536;BME280;6334;48.696;2.114;2024-03-25T05:52:59;98981.23;;;6.42;72.76
12536;BME280;6334;48.696;2.114;2024-03-25T05:55:29;98984.30;;;6.17;73.03
12536;BME280;6334;48.696;2.114;2024-03-25T05:57:59;98981.92;;;6.17;73.36
12536;BME280;6334;48.696;2.114;2024-03-25T06:00:29;98985.81;;;6.09;74.22
12536;BME280;6334;48.696;2.114;2024-03-25T06:03:16;98990.04;;;5.99;74.01
12536;BME280;6334;48.696;2.114;2024-03-25T06:06:26;98975.61;;;6.14;73.09
12536;BME280;6334;48.696;2.114;2024-03-25T06:08:58;98972.86;;;6.23;73.64
12536;BME280;6334;48.696;2.114;2024-03-25T06:11:30;98965.98;;;6.18;73.89
12536;BME280;6334;48.696;2.114;2024-03-25T06:14:02;98952.13;;;5.81;74.42
12536;BME280;6334;48.696;2.114;2024-03-25T06:16:32;98959.45;;;5.96;74.50
12536;BME280;6334;48.696;2.114;2024-03-25T06:19:02;98954.48;;;6.13;74.44
12536;BME280;6334;48.696;2.114;2024-03-25T06:21:34;98954.78;;;6.21;73.97
12536;BME280;6334;48.696;2.114;2024-03-25T06:24:04;98949.44;;;6.13;74.53
12536;BME280;6334;48.696;2.114;2024-03-25T06:26:34;98950.50;;;5.56;75.61
12536;BME280;6334;48.696;2.114;2024-03-25T06:31:39;98946.02;;;5.90;75.33
12536;BME280;6334;48.696;2.114;2024-03-25T06:34:44;98936.79;;;6.01;75.72
12536;BME280;6334;48.696;2.114;2024-03-25T06:42:05;98927.39;;;6.52;74.67
12536;BME280;6334;48.696;2.114;2024-03-25T06:44:53;98927.49;;;6.33;74.45
12536;BME280;6334;48.696;2.114;2024-03-25T06:47:43;98928.13;;;6.52;74.89
12536;BME280;6334;48.696;2.114;2024-03-25T06:50:15;98927.55;;;6.27;74.41
12536;BME280;6334;48.696;2.114;2024-03-25T06:52:48;98921.77;;;6.51;74.14
12536;BME280;6334;48.696;2.114;2024-03-25T06:55:21;98916.19;;;6.68;74.00
12536;BME280;6334;48.696;2.114;2024-03-25T06:57:52;98911.73;;;6.49;74.86
12536;BME280;6334;48.696;2.114;2024-03-25T07:00:22;98911.30;;;6.39;76.17
12536;BME280;6334;48.696;2.114;2024-03-25T07:02:52;98910.30;;;6.59;75.02
12536;BME280;6334;48.696;2.114;2024-03-25T07:05:22;98915.51;;;6.58;75.58
12536;BME280;6334;48.696;2.114;2024-03-25T07:07:52;98920.11;;;6.48;75.52
12536;BME280;6334;48.696;2.114;2024-03-25T07:10:22;98915.77;;;6.43;75.97
12536;BME280;6334;48.696;2.114;2024-03-25T07:12:52;98912.40;;;6.83;75.55
12536;BME280;6334;48.696;2.114;2024-03-25T07:15:22;98913.63;;;6.68;74.94
12536;BME280;6334;48.696;2.114;2024-03-25T07:17:53;98910.55;;;6.69;75.50
12536;BME280;6334;48.696;2.114;2024-03-25T07:20:27;98909.73;;;6.80;75.21
12536;BME280;6334;48.696;2.114;2024-03-25T07:23:00;98909.39;;;6.80;75.30
12536;BME280;6334;48.696;2.114;2024-03-25T07:25:30;98906.45;;;6.72;76.07
12536;BME280;6334;48.696;2.114;2024-03-25T07:28:00;98906.20;;;6.54;76.92
12536;BME280;6334;48.696;2.114;2024-03-25T07:30:31;98906.06;;;6.87;76.40
12536;BME280;6334;48.696;2.114;2024-03-25T07:33:01;98905.85;;;7.01;75.89
12536;BME280;6334;48.696;2.114;2024-03-25T07:35:31;98900.34;;;7.10;75.64
12536;BME280;6334;48.696;2.114;2024-03-25T07:38:00;98892.99;;;7.18;76.13
12536;BME280;6334;48.696;2.114;2024-03-25T07:40:32;98889.03;;;7.29;75.31
12536;BME280;6334;48.696;2.114;2024-03-25T07:43:02;98894.19;;;7.11;75.76
12536;BME280;6334;48.696;2.114;2024-03-25T07:45:32;98891.89;;;7.20;76.18
12536;BME280;6334;48.696;2.114;2024-03-25T07:48:04;98890.06;;;7.46;75.37
12536;BME280;6334;48.696;2.114;2024-03-25T07:50:34;98878.95;;;7.27;76.24
12536;BME280;6334;48.696;2.114;2024-03-25T07:53:04;98877.27;;;7.44;75.33
12536;BME280;6334;48.696;2.114;2024-03-25T07:55:33;98877.75;;;7.25;76.21
12536;BME280;6334;48.696;2.114;2024-03-25T07:58:03;98867.55;;;7.50;75.24
12536;BME280;6334;48.696;2.114;2024-03-25T08:00:37;98863.11;;;7.65;74.20
12536;BME280;6334;48.696;2.114;2024-03-25T08:03:09;98863.08;;;7.50;76.73
12536;BME280;6334;48.696;2.114;2024-03-25T08:05:40;98861.39;;;7.95;74.91
12536;BME280;6334;48.696;2.114;2024-03-25T08:10:47;98846.52;;;7.97;74.26
12536;BME280;6334;48.696;2.114;2024-03-25T08:13:18;98845.30;;;7.96;76.46
12536;BME280;6334;48.696;2.114;2024-03-25T08:15:48;98833.40;;;8.03;75.06
12536;BME280;6334;48.696;2.114;2024-03-25T08:18:17;98826.25;;;7.96;75.20
12536;BME280;6334;48.696;2.114;2024-03-25T08:20:48;98821.31;;;8.02;75.97
12536;BME280;6334;48.696;2.114;2024-03-25T08:23:18;98813.02;;;8.07;75.52
12536;BME280;6334;48.696;2.114;2024-03-25T08:25:55;98823.20;;;8.00;75.45
12536;BME280;6334;48.696;2.114;2024-03-25T08:28:24;98819.65;;;8.07;74.93
12536;BME280;6334;48.696;2.114;2024-03-25T08:30:53;98816.33;;;8.03;75.74
12536;BME280;6334;48.696;2.114;2024-03-25T08:33:23;98812.48;;;8.35;74.89
12536;BME280;6334;48.696;2.114;2024-03-25T08:35:54;98817.55;;;8.34;74.58
12536;BME280;6334;48.696;2.114;2024-03-25T08:38:25;98815.89;;;8.31;74.62
12536;BME280;6334;48.696;2.114;2024-03-25T08:40:55;98810.97;;;8.28;74.54
12536;BME280;6334;48.696;2.114;2024-03-25T08:43:25;98807.02;;;8.27;75.07
12536;BME280;6334;48.696;2.114;2024-03-25T08:45:55;98811.41;;;8.58;75.13
12536;BME280;6334;48.696;2.114;2024-03-25T08:48:25;98804.66;;;8.55;75.24
12536;BME280;6334;48.696;2.114;2024-03-25T08:50:55;98803.07;;;8.56;74.77
12536;BME280;6334;48.696;2.114;2024-03-25T08:53:29;98803.75;;;8.62;74.29
12536;BME280;6334;48.696;2.114;2024-03-25T08:55:59;98799.94;;;8.55;74.19
12536;BME280;6334;48.696;2.114;2024-03-25T08:58:29;98791.31;;;8.83;72.69
12536;BME280;6334;48.696;2.114;2024-03-25T09:00:59;98780.69;;;8.93;73.18
12536;BME280;6334;48.696;2.114;2024-03-25T09:03:29;98780.23;;;8.81;72.98
12536;BME280;6334;48.696;2.114;2024-03-25T09:06:00;98772.11;;;9.01;73.08
12536;BME280;6334;48.696;2.114;2024-03-25T09:08:30;98769.62;;;9.19;72.31
12536;BME280;6334;48.696;2.114;2024-03-25T09:10:59;98764.06;;;9.26;72.21
12536;BME280;6334;48.696;2.114;2024-03-25T09:13:33;98762.34;;;9.15;72.63
12536;BME280;6334;48.696;2.114;2024-03-25T09:16:04;98761.86;;;9.31;72.34
12536;BME280;6334;48.696;2.114;2024-03-25T09:18:35;98755.48;;;9.21;72.11
12536;BME280;6334;48.696;2.114;2024-03-25T09:21:05;98754.00;;;9.37;71.85
12536;BME280;6334;48.696;2.114;2024-03-25T09:23:36;98749.81;;;9.34;72.18
12536;BME280;6334;48.696;2.114;2024-03-25T09:26:05;98745.59;;;9.51;72.08
12536;BME280;6334;48.696;2.114;2024-03-25T09:28:35;98747.86;;;9.51;72.44
12536;BME280;6334;48.696;2.114;2024-03-25T09:31:05;98742.73;;;9.79;71.89
12536;BME280;6334;48.696;2.114;2024-03-25T09:33:35;98735.02;;;9.53;71.06
12536;BME280;6334;48.696;2.114;2024-03-25T09:36:05;98730.80;;;9.73;70.13
12536;BME280;6334;48.696;2.114;2024-03-25T09:38:35;98723.14;;;9.81;70.07
12536;BME280;6334;48.696;2.114;2024-03-25T09:41:08;98722.11;;;9.91;69.95
12536;BME280;6334;48.696;2.114;2024-03-25T09:43:43;98721.00;;;9.94;70.51
12536;BME280;6334;48.696;2.114;2024-03-25T09:46:13;98718.49;;;10.06;69.50
12536;BME280;6334;48.696;2.114;2024-03-25T09:48:43;98712.27;;;10.43;69.09
12536;BME280;6334;48.696;2.114;2024-03-25T09:51:12;98708.87;;;10.33;69.29
12536;BME280;6334;48.696;2.114;2024-03-25T09:53:42;98701.58;;;10.32;67.51
12536;BME280;6334;48.696;2.114;2024-03-25T09:56:12;98697.84;;;10.52;67.92
12536;BME280;6334;48.696;2.114;2024-03-25T09:58:46;98697.17;;;10.42;68.46
12536;BME280;6334;48.696;2.114;2024-03-25T10:01:17;98696.41;;;10.47;73.35
12536;BME280;6334;48.696;2.114;2024-03-25T10:03:47;98695.73;;;10.76;71.17
12536;BME280;6334;48.696;2.114;2024-03-25T10:06:18;98689.13;;;10.62;70.31
12536;BME280;6334;48.696;2.114;2024-03-25T10:22:01;98623.30;;;10.39;65.84
12536;BME280;6334;48.696;2.114;2024-03-25T10:24:41;98651.32;;;10.96;66.43
12536;BME280;6334;48.696;2.114;2024-03-25T10:27:33;98629.73;;;10.69;64.14
12536;BME280;6334;48.696;2.114;2024-03-25T10:32:13;98637.09;;;10.89;63.48
12536;BME280;6334;48.696;2.114;2024-03-25T10:35:25;98626.05;;;10.75;62.92
12536;BME280;6334;48.696;2.114;2024-03-25T10:38:56;98630.60;;;11.16;62.89
12536;BME280;6334;48.696;2.114;2024-03-25T10:42:46;98611.51;;;11.29;61.03
12536;BME280;6334;48.696;2.114;2024-03-25T10:45:57;98597.27;;;11.33;59.41
12536;BME280;6334;48.696;2.114;2024-03-25T10:48:34;98596.51;;;11.62;61.37
12536;BME280;6334;48.696;2.114;2024-03-25T10:51:31;98582.94;;;11.49;60.29
12536;BME280;6334;48.696;2.114;2024-03-25T10:54:08;98575.45;;;11.57;60.45
12536;BME280;6334;48.696;2.114;2024-03-25T10:58:37;98568.89;;;11.54;60.04
12536;BME280;6334;48.696;2.114;2024-03-25T11:04:44;98555.32;;;11.52;59.14
12536;BME280;6334;48.696;2.114;2024-03-25T11:07:13;98550.73;;;11.41;59.96
12536;BME280;6334;48.696;2.114;2024-03-25T11:11:53;98543.66;;;11.31;58.88
12536;BME280;6334;48.696;2.114;2024-03-25T11:15:03;98524.99;;;11.50;58.43
12536;BME280;6334;48.696;2.114;2024-03-25T11:21:49;98497.19;;;11.29;59.02
12536;BME280;6334;48.696;2.114;2024-03-25T11:25:07;98502.52;;;11.62;58.94
12536;BME280;6334;48.696;2.114;2024-03-25T11:29:15;98492.42;;;11.53;57.38
12536;BME280;6334;48.696;2.114;2024-03-25T11:37:40;98474.80;;;11.88;58.30
12536;BME280;6334;48.696;2.114;2024-03-25T11:41:00;98466.47;;;11.88;57.57
12536;BME280;6334;48.696;2.114;2024-03-25T11:43:33;98461.00;;;11.81;56.97
12536;BME280;6334;48.696;2.114;2024-03-25T11:52:29;98447.86;;;12.10;55.86
12536;BME280;6334;48.696;2.114;2024-03-25T11:56:05;98423.68;;;11.67;55.55
12536;BME280;6334;48.696;2.114;2024-03-25T11:59:17;98426.30;;;11.72;55.54
12536;BME280;6334;48.696;2.114;2024-03-25T12:02:24;98419.16;;;11.68;54.70
12536;BME280;6334;48.696;2.114;2024-03-25T12:06:44;98364.97;;;11.75;55.16
12536;BME280;6334;48.696;2.114;2024-03-25T12:09:20;98398.73;;;12.05;56.32
12536;BME280;6334;48.696;2.114;2024-03-25T12:16:25;98392.50;;;11.76;51.88
12536;BME280;6334;48.696;2.114;2024-03-25T12:22:34;98365.87;;;11.85;52.08
12536;BME280;6334;48.696;2.114;2024-03-25T12:25:50;98336.98;;;11.86;54.22
12536;BME280;6334;48.696;2.114;2024-03-25T12:28:55;98357.48;;;11.78;51.97
12536;BME280;6334;48.696;2.114;2024-03-25T12:31:58;98351.00;;;11.74;51.83
12536;BME280;6334;48.696;2.114;2024-03-25T12:35:24;98340.74;;;12.00;51.15
12536;BME280;6334;48.696;2.114;2024-03-25T12:39:16;98335.32;;;12.25;52.32
12536;BME280;6334;48.696;2.114;2024-03-25T12:46:30;98323.22;;;12.25;49.60
12536;BME280;6334;48.696;2.114;2024-03-25T12:49:19;98318.89;;;12.07;48.68
12536;BME280;6334;48.696;2.114;2024-03-25T12:52:31;98310.83;;;12.11;46.28
12536;BME280;6334;48.696;2.114;2024-03-25T12:55:25;98305.28;;;12.51;50.62
12536;BME280;6334;48.696;2.114;2024-03-25T13:00:30;98293.19;;;12.70;47.72
12536;BME280;6334;48.696;2.114;2024-03-25T13:03:00;98291.23;;;12.84;49.65
12536;BME280;6334;48.696;2.114;2024-03-25T13:06:38;98245.30;;;12.45;48.42
12536;BME280;6334;48.696;2.114;2024-03-25T13:09:28;98268.17;;;12.76;49.69
12536;BME280;6334;48.696;2.114;2024-03-25T13:13:30;98255.58;;;12.30;48.44
12536;BME280;6334;48.696;2.114;2024-03-25T13:16:15;98232.80;;;12.37;47.45
12536;BME280;6334;48.696;2.114;2024-03-25T13:19:54;98248.77;;;12.65;47.09
12536;BME280;6334;48.696;2.114;2024-03-25T13:22:36;98236.00;;;12.60;47.47
12536;BME280;6334;48.696;2.114;2024-03-25T13:25:24;98228.97;;;12.57;47.17
12536;BME280;6334;48.696;2.114;2024-03-25T13:28:11;98218.44;;;12.62;47.97
12536;BME280;6334;48.696;2.114;2024-03-25T13:30:48;98210.20;;;12.62;49.19
12536;BME280;6334;48.696;2.114;2024-03-25T13:33:35;98174.27;;;12.50;49.22
12536;BME280;6334;48.696;2.114;2024-03-25T13:37:06;98186.45;;;12.91;46.83
12536;BME280;6334;48.696;2.114;2024-03-25T13:39:43;98186.91;;;12.76;46.79
12536;BME280;6334;48.696;2.114;2024-03-25T13:42:14;98184.97;;;12.75;46.84
12536;BME280;6334;48.696;2.114;2024-03-25T13:45:12;98064.95;;;12.01;46.83
12536;BME280;6334;48.696;2.114;2024-03-25T13:48:35;98166.00;;;12.79;44.91
12536;BME280;6334;48.696;2.114;2024-03-25T13:51:35;98165.95;;;12.63;44.69
12536;BME280;6334;48.696;2.114;2024-03-25T13:54:39;98153.57;;;12.52;44.40
12536;BME280;6334;48.696;2.114;2024-03-25T13:57:22;98157.55;;;12.47;44.74
12536;BME280;6334;48.696;2.114;2024-03-25T13:59:54;98156.01;;;12.51;44.79
12536;BME280;6334;48.696;2.114;2024-03-25T14:02:24;98150.94;;;12.83;48.15
12536;BME280;6334;48.696;2.114;2024-03-25T14:05:39;98140.44;;;12.86;45.92
12536;BME280;6334;48.696;2.114;2024-03-25T14:08:36;98142.44;;;12.86;45.94
12536;BME280;6334;48.696;2.114;2024-03-25T14:12:52;98127.80;;;12.47;46.26
12536;BME280;6334;48.696;2.114;2024-03-25T14:16:27;98130.53;;;12.47;46.39
12536;BME280;6334;48.696;2.114;2024-03-25T14:19:03;98137.02;;;12.27;46.36
12536;BME280;6334;48.696;2.114;2024-03-25T14:22:11;98133.05;;;12.05;46.10
12536;BME280;6334;48.696;2.114;2024-03-25T14:25:08;98119.23;;;12.28;46.18
12536;BME280;6334;48.696;2.114;2024-03-25T14:28:35;98120.69;;;12.21;46.67
12536;BME280;6334;48.696;2.114;2024-03-25T14:32:08;98112.45;;;12.37;45.56
12536;BME280;6334;48.696;2.114;2024-03-25T14:35:42;98096.05;;;12.33;46.22
12536;BME280;6334;48.696;2.114;2024-03-25T14:39:59;98097.97;;;12.56;46.41
12536;BME280;6334;48.696;2.114;2024-03-25T14:55:48;98071.63;;;12.61;47.28
12536;BME280;6334;48.696;2.114;2024-03-25T15:01:08;98058.83;;;12.42;47.77
12536;BME280;6334;48.696;2.114;2024-03-25T15:03:39;98061.67;;;12.39;47.32
12536;BME280;6334;48.696;2.114;2024-03-25T15:06:19;98066.70;;;12.57;47.37
12536;BME280;6334;48.696;2.114;2024-03-25T15:08:50;98064.55;;;12.46;48.71
12536;BME280;6334;48.696;2.114;2024-03-25T15:11:20;98058.80;;;12.72;49.98
12536;BME280;6334;48.696;2.114;2024-03-25T15:13:52;98055.00;;;12.69;48.93
12536;BME280;6334;48.696;2.114;2024-03-25T15:17:16;97932.37;;;11.95;48.02
12536;BME280;6334;48.696;2.114;2024-03-25T15:19:45;98042.47;;;12.74;49.60
12536;BME280;6334;48.696;2.114;2024-03-25T15:22:43;98039.09;;;12.73;49.64
12536;BME280;6334;48.696;2.114;2024-03-25T15:25:19;98035.77;;;12.84;51.11
12536;BME280;6334;48.696;2.114;2024-03-25T15:27:56;98028.88;;;12.57;50.34
12536;BME280;6334;48.696;2.114;2024-03-25T15:30:26;98018.16;;;12.70;50.89
12536;BME280;6334;48.696;2.114;2024-03-25T15:33:01;98019.13;;;12.82;51.15
12536;BME280;6334;48.696;2.114;2024-03-25T15:35:35;98017.88;;;12.77;49.55
12536;BME280;6334;48.696;2.114;2024-03-25T15:40:13;98009.85;;;12.81;49.17
12536;BME280;6334;48.696;2.114;2024-03-25T15:42:44;98002.78;;;12.80;50.33
12536;BME280;6334;48.696;2.114;2024-03-25T15:45:24;97989.84;;;12.77;52.30
12536;BME280;6334;48.696;2.114;2024-03-25T15:47:54;97983.34;;;12.60;51.11
12536;BME280;6334;48.696;2.114;2024-03-25T15:50:35;97976.47;;;12.65;50.95
12536;BME280;6334;48.696;2.114;2024-03-25T15:53:06;97964.57;;;12.74;52.30
12536;BME280;6334;48.696;2.114;2024-03-25T15:55:50;97951.55;;;12.64;51.13
12536;BME280;6334;48.696;2.114;2024-03-25T15:58:38;97943.42;;;12.45;51.54
12536;BME280;6334;48.696;2.114;2024-03-25T16:01:13;97942.63;;;12.51;51.34
12536;BME280;6334;48.696;2.114;2024-03-25T16:03:44;97938.34;;;12.58;51.82
12536;BME280;6334;48.696;2.114;2024-03-25T16:06:26;97931.76;;;12.38;52.06
12536;BME280;6334;48.696;2.114;2024-03-25T16:09:23;97926.14;;;12.17;52.38
12536;BME280;6334;48.696;2.114;2024-03-25T16:11:53;97920.56;;;12.17;51.88
12536;BME280;6334;48.696;2.114;2024-03-25T16:14:32;97916.38;;;12.33;52.72
12536;BME280;6334;48.696;2.114;2024-03-25T16:17:03;97908.08;;;12.37;51.28
12536;BME280;6334;48.696;2.114;2024-03-25T16:19:34;97912.28;;;12.27;52.17
12536;BME280;6334;48.696;2.114;2024-03-25T16:22:40;97902.05;;;12.01;51.30
12536;BME280;6334;48.696;2.114;2024-03-25T16:25:33;97899.22;;;12.25;51.03
12536;BME280;6334;48.696;2.114;2024-03-25T16:28:02;97899.83;;;12.17;52.19
12536;BME280;6334;48.696;2.114;2024-03-25T16:30:40;97896.38;;;12.33;51.10
12536;BME280;6334;48.696;2.114;2024-03-25T16:33:10;97892.39;;;12.12;51.11
12536;BME280;6334;48.696;2.114;2024-03-25T16:36:30;97886.45;;;12.24;51.06
12536;BME280;6334;48.696;2.114;2024-03-25T16:39:04;97891.04;;;12.27;51.90
12536;BME280;6334;48.696;2.114;2024-03-25T16:41:44;97896.06;;;12.11;52.72